Terminal Aerodrome Forecast
Issued by NWS Wilmington, NC

Home | Current Version | Previous Version | Text Only | Print | Product List | Glossary On
Versions: 1 2 3 4 5 6 7 8 9 10 11 12 13 14 15 16
452
FTUS42 KILM 240055 AAA
TAFMYR
TAF AMD
KMYR 240055Z 2401/2424 17018G25KT P6SM VCSH BKN025 OVC045
      TEMPO 2401/2403 4SM SHRA BKN015
     FM240300 19016G25KT 4SM -SHRA BKN020 WS020/19045KT
     FM240500 19015G24KT P6SM VCSH BKN035
      TEMPO 2409/2412 2SM SHRA
     FM241300 22010KT P6SM VCSH BKN025
     FM241500 24010KT P6SM BKN080
     FM242100 24009KT P6SM SCT050=

USA.gov is the U.S. government's official web portal to all federal, state and local government web resources and services.